Terminal Aerodrome Forecast
Issued by NWS Spokane, WA

Home | Current Version | Previous Version | Text Only | Print | Product List | Glossary On
Versions: 1 2 3 4 5 6 7 8 9 10 11 12 13 14 15 16 17 18 19 20 21 22 23 24 25 26 27 28 29 30 31 32 33 34 35 36 37 38 39 40 41 42 43 44 45 46 47 48 49 50
000
FTUS46 KOTX 271720
TAFGEG
TAF
KGEG 271720Z 2718/2818 VRB04KT P6SM SCT050 BKN100
     FM272100 34004KT P6SM -SHRA SCT050 BKN120
     FM280000 23005KT P6SM -SHRA VCTS FEW060CB BKN120
     FM280300 21005KT P6SM FEW070 SCT100
     FM280900 16004KT P6SM FEW100=

USA.gov is the U.S. government's official web portal to all federal, state and local government web resources and services.